createdAt,value
2018-02-06T00:00:44.014Z,4.00
2018-02-06T00:01:44.057Z,4.00
2018-02-06T00:02:43.980Z,4.00
2018-02-06T00:03:44.022Z,4.00
2018-02-06T00:04:44.262Z,4.00
2018-02-06T00:05:43.972Z,4.00
2018-02-06T00:06:43.950Z,4.00
2018-02-06T00:07:43.985Z,4.00
2018-02-06T00:08:43.946Z,4.00
2018-02-06T00:10:43.907Z,4.00
2018-02-06T00:11:44.236Z,4.00
2018-02-06T00:12:43.898Z,4.00
2018-02-06T00:13:43.897Z,4.00
2018-02-06T00:14:43.907Z,4.00
2018-02-06T00:15:43.911Z,4.00
2018-02-06T00:16:43.872Z,4.00
2018-02-06T00:17:44.175Z,4.00
2018-02-06T00:18:44.175Z,4.00
2018-02-06T00:19:43.934Z,4.00
2018-02-06T00:20:43.874Z,4.00
2018-02-06T00:21:43.915Z,4.00
2018-02-06T00:22:43.845Z,4.00
2018-02-06T00:23:43.789Z,4.00
2018-02-06T00:24:43.813Z,4.00
2018-02-06T00:25:44.078Z,4.00
2018-02-06T00:26:43.753Z,4.00
2018-02-06T00:27:43.766Z,4.00
2018-02-06T00:28:43.789Z,4.00
2018-02-06T00:29:43.745Z,4.00
2018-02-06T00:30:43.743Z,4.00
2018-02-06T00:31:43.746Z,4.00
2018-02-06T00:32:44.049Z,4.00
2018-02-06T00:33:43.711Z,4.00
2018-02-06T00:34:43.706Z,4.00
2018-02-06T00:35:43.700Z,4.00
2018-02-06T00:36:43.682Z,4.00
2018-02-06T00:37:43.685Z,4.00
2018-02-06T00:38:43.645Z,4.00
2018-02-06T00:39:43.946Z,4.00
2018-02-06T00:40:43.655Z,4.00
2018-02-06T00:41:43.617Z,4.00
2018-02-06T00:42:43.904Z,4.00
2018-02-06T00:43:43.596Z,4.00
2018-02-06T00:44:43.914Z,4.00
2018-02-06T00:45:43.574Z,4.00
2018-02-06T00:46:44.039Z,4.00
2018-02-06T00:47:43.562Z,4.00
2018-02-06T00:48:43.573Z,4.00
2018-02-06T00:49:43.594Z,4.00
2018-02-06T00:51:43.545Z,4.00
2018-02-06T00:52:43.899Z,4.00
2018-02-06T00:53:43.520Z,4.00
2018-02-06T00:54:43.500Z,4.00
2018-02-06T00:55:43.521Z,4.00
2018-02-06T00:56:43.482Z,4.00
2018-02-06T00:57:43.530Z,4.00
2018-02-06T00:58:43.771Z,4.00
2018-02-06T01:00:43.565Z,4.00
2018-02-06T01:01:43.476Z,4.00
2018-02-06T01:02:43.454Z,4.00
2018-02-06T01:03:43.420Z,4.00
2018-02-06T01:04:43.743Z,4.00
2018-02-06T01:05:43.385Z,4.00
2018-02-06T01:06:43.458Z,4.00
2018-02-06T01:07:43.689Z,4.00
2018-02-06T01:08:43.392Z,4.00
2018-02-06T01:09:43.865Z,4.00
2018-02-06T01:10:43.734Z,4.00
2018-02-06T01:11:43.349Z,4.00
2018-02-06T01:12:43.336Z,4.00
2018-02-06T01:13:43.393Z,4.00
2018-02-06T01:14:43.318Z,4.00
2018-02-06T01:15:43.314Z,4.00
2018-02-06T01:16:43.655Z,4.00
2018-02-06T01:17:43.284Z,4.00
2018-02-06T01:18:43.329Z,4.00
2018-02-06T01:19:43.265Z,4.00
2018-02-06T01:20:43.300Z,4.00
2018-02-06T01:21:43.288Z,4.00
2018-02-06T01:22:43.569Z,4.00
2018-02-06T01:23:43.260Z,4.00
2018-02-06T01:24:43.242Z,4.00
2018-02-06T01:25:43.241Z,4.00
2018-02-06T01:27:43.231Z,4.00
2018-02-06T01:28:43.487Z,4.00
2018-02-06T01:29:43.231Z,4.00
2018-02-06T01:30:43.179Z,4.00
2018-02-06T01:31:43.204Z,4.00
2018-02-06T01:32:43.246Z,4.00
2018-02-06T01:33:43.155Z,4.00
2018-02-06T01:34:43.831Z,4.00
2018-02-06T01:35:43.145Z,4.00
2018-02-06T01:36:43.125Z,4.00
2018-02-06T01:37:43.145Z,4.00
2018-02-06T01:38:43.115Z,4.00
2018-02-06T01:39:43.091Z,4.00
2018-02-06T01:40:43.091Z,4.00
2018-02-06T01:42:43.454Z,4.00
2018-02-06T01:43:43.070Z,4.00
2018-02-06T01:44:43.114Z,4.00
2018-02-06T01:45:43.040Z,4.00
2018-02-06T01:46:43.025Z,4.00
2018-02-06T01:47:43.029Z,4.00
2018-02-06T01:48:43.030Z,4.00
2018-02-06T01:49:43.358Z,4.00
2018-02-06T01:50:43.018Z,4.00
2018-02-06T01:51:43.006Z,4.00
2018-02-06T01:52:42.976Z,4.00
2018-02-06T01:53:42.990Z,4.00
2018-02-06T01:54:43.007Z,4.00
2018-02-06T01:55:43.000Z,4.00
2018-02-06T01:56:43.329Z,4.00
2018-02-06T01:57:43.426Z,4.00
2018-02-06T01:58:42.937Z,4.00
2018-02-06T01:59:43.245Z,4.00
2018-02-06T02:00:42.914Z,4.00
2018-02-06T02:01:42.982Z,4.00
2018-02-06T02:02:42.907Z,4.00
2018-02-06T02:03:43.179Z,4.00
2018-02-06T02:04:42.956Z,4.00
2018-02-06T02:05:43.435Z,4.00
2018-02-06T02:06:42.835Z,4.00
2018-02-06T02:07:42.895Z,4.00
2018-02-06T02:08:42.898Z,4.00
2018-02-06T02:09:42.838Z,4.00
2018-02-06T02:10:43.156Z,4.00
2018-02-06T02:11:42.861Z,4.00
2018-02-06T02:12:42.923Z,4.00
2018-02-06T02:13:42.840Z,4.00
2018-02-06T02:14:42.787Z,4.00
2018-02-06T02:17:42.779Z,4.00
2018-02-06T02:18:43.130Z,4.00
2018-02-06T02:21:42.727Z,4.00
2018-02-06T02:22:43.010Z,4.00
2018-02-06T02:23:42.694Z,4.00
2018-02-06T02:24:43.237Z,4.00
2018-02-06T02:25:43.045Z,4.00
2018-02-06T02:26:42.681Z,4.00
2018-02-06T02:27:42.671Z,4.00
2018-02-06T02:28:42.694Z,4.00
2018-02-06T02:29:42.662Z,4.00
2018-02-06T02:30:42.659Z,4.00
2018-02-06T02:31:42.968Z,4.00
2018-02-06T02:32:42.613Z,4.00
2018-02-06T02:33:43.012Z,4.00
2018-02-06T02:34:42.704Z,4.00
2018-02-06T02:35:42.631Z,4.00
2018-02-06T02:36:42.586Z,4.00
2018-02-06T02:37:42.970Z,4.00
2018-02-06T02:41:42.555Z,4.00
2018-02-06T04:38:41.482Z,4.00
2018-02-06T04:39:41.516Z,4.00
2018-02-06T04:40:41.436Z,4.00
2018-02-06T04:41:41.808Z,4.00
2018-02-06T04:42:41.431Z,4.00
2018-02-06T04:43:41.437Z,4.00
2018-02-06T04:44:41.434Z,4.00
2018-02-06T04:45:41.410Z,4.00
2018-02-06T04:46:41.449Z,4.00
2018-02-06T04:47:41.410Z,4.00
2018-02-06T04:48:41.679Z,4.00
2018-02-06T04:49:41.383Z,4.00
2018-02-06T04:50:41.459Z,4.00
2018-02-06T04:51:41.371Z,4.00
2018-02-06T04:52:41.683Z,0.00
2018-02-06T04:54:41.534Z,0.00
2018-02-06T04:56:41.652Z,0.00
2018-02-06T04:57:41.321Z,0.00
2018-02-06T04:58:41.338Z,0.00
2018-02-06T04:59:41.315Z,0.00
2018-02-06T05:00:41.260Z,0.00
2018-02-06T05:01:41.316Z,0.00
2018-02-06T05:02:41.286Z,0.00
2018-02-06T05:03:41.559Z,0.00
2018-02-06T05:04:41.252Z,0.00
2018-02-06T05:05:41.215Z,0.00
2018-02-06T05:06:41.277Z,0.00
2018-02-06T05:07:41.250Z,0.00
2018-02-06T05:08:41.233Z,0.00
2018-02-06T05:09:41.201Z,0.00
2018-02-06T05:10:41.587Z,0.00
2018-02-06T05:11:41.165Z,0.00
2018-02-06T05:12:41.149Z,0.00
2018-02-06T05:13:41.155Z,0.00
2018-02-06T05:14:41.135Z,0.00
2018-02-06T05:15:41.140Z,0.00
2018-02-06T05:16:41.189Z,0.00
2018-02-06T05:17:41.617Z,0.00
2018-02-06T05:18:41.096Z,0.00
2018-02-06T05:19:41.321Z,0.00
2018-02-06T05:21:41.426Z,0.00
2018-02-06T05:22:41.049Z,0.00
2018-02-06T05:23:41.040Z,0.00
2018-02-06T05:24:41.513Z,0.00
2018-02-06T05:25:41.242Z,0.00
2018-02-06T05:26:41.066Z,0.00
2018-02-06T05:27:41.014Z,0.00
2018-02-06T05:28:41.005Z,0.00
2018-02-06T05:29:40.987Z,0.00
2018-02-06T05:30:41.028Z,0.00
2018-02-06T05:31:41.273Z,0.00
2018-02-06T05:32:41.018Z,0.00
2018-02-06T05:33:40.949Z,0.00
2018-02-06T05:34:40.970Z,0.00
2018-02-06T05:35:40.949Z,0.00
2018-02-06T05:36:40.931Z,0.00
2018-02-06T05:37:41.230Z,0.00
2018-02-06T05:38:40.923Z,0.00
2018-02-06T05:39:40.959Z,0.00
2018-02-06T05:40:41.193Z,0.00
2018-02-06T05:41:40.882Z,0.00
2018-02-06T05:42:41.173Z,0.00
2018-02-06T05:43:41.245Z,0.00
2018-02-06T05:44:40.929Z,0.00
2018-02-06T05:45:40.931Z,0.00
2018-02-06T05:46:40.851Z,0.00
2018-02-06T05:47:40.868Z,0.00
2018-02-06T05:48:40.830Z,0.00
2018-02-06T05:52:41.167Z,0.00
2018-02-06T05:53:40.782Z,0.00
2018-02-06T05:54:40.839Z,0.00
2018-02-06T05:55:40.818Z,0.00
2018-02-06T05:56:40.797Z,0.00
2018-02-06T05:57:40.780Z,0.00
2018-02-06T05:58:41.064Z,0.00
2018-02-06T05:59:40.765Z,0.00
2018-02-06T06:00:40.810Z,0.00
2018-02-06T06:01:40.747Z,0.00
2018-02-06T06:02:40.693Z,0.00
2018-02-06T06:03:40.729Z,0.00
2018-02-06T06:05:41.002Z,0.00
2018-02-06T06:06:40.680Z,0.00
2018-02-06T06:07:40.955Z,0.00
2018-02-06T06:08:40.714Z,0.00
2018-02-06T06:10:40.986Z,0.00
2018-02-06T06:12:40.633Z,0.00
2018-02-06T06:13:40.623Z,0.00
2018-02-06T06:14:40.591Z,0.00
2018-02-06T06:15:40.611Z,0.00
2018-02-06T06:16:40.938Z,0.00
2018-02-06T06:17:40.755Z,0.00
2018-02-06T06:18:40.551Z,0.00
2018-02-06T06:19:40.572Z,0.00
2018-02-06T06:20:40.577Z,0.00
2018-02-06T06:21:40.545Z,0.00
2018-02-06T06:22:40.560Z,0.00
2018-02-06T06:23:41.301Z,0.00
2018-02-06T06:24:40.600Z,0.00
2018-02-06T06:25:40.557Z,0.00
2018-02-06T06:26:40.468Z,0.00
2018-02-06T06:27:40.496Z,0.00
2018-02-06T06:28:40.480Z,0.00
2018-02-06T06:29:40.488Z,0.00
2018-02-06T06:30:41.174Z,0.00
2018-02-06T06:31:40.436Z,0.00
2018-02-06T06:32:40.946Z,0.00
2018-02-06T06:33:40.461Z,0.00
2018-02-06T06:35:40.453Z,0.00
2018-02-06T06:36:40.451Z,0.00
2018-02-06T06:37:40.691Z,0.00
2018-02-06T06:38:40.388Z,0.00
2018-02-06T06:39:40.387Z,0.00
2018-02-06T06:40:40.433Z,0.00
2018-02-06T06:41:40.356Z,0.00
2018-02-06T06:42:40.426Z,0.00
2018-02-06T06:43:40.350Z,0.00
2018-02-06T06:44:40.635Z,0.00
2018-02-06T06:45:40.389Z,0.00
2018-02-06T06:46:40.337Z,0.00
2018-02-06T06:47:40.296Z,0.00
2018-02-06T06:48:40.306Z,0.00
2018-02-06T06:49:40.380Z,0.00
2018-02-06T06:50:40.321Z,0.00
2018-02-06T06:51:40.737Z,0.00
2018-02-06T06:52:40.370Z,4.00
2018-02-06T06:53:40.255Z,4.00
2018-02-06T06:54:40.231Z,4.00
2018-02-06T06:55:40.530Z,4.00
2018-02-06T06:56:40.201Z,0.00
2018-02-06T06:57:40.599Z,0.00
2018-02-06T06:58:40.610Z,0.00
2018-02-06T06:59:40.251Z,0.00
2018-02-06T07:00:40.158Z,0.00
2018-02-06T07:01:40.197Z,0.00
2018-02-06T07:02:40.146Z,4.00
2018-02-06T07:03:40.182Z,4.00
2018-02-06T07:04:40.203Z,4.00
2018-02-06T07:06:40.489Z,4.00
2018-02-06T07:07:40.123Z,4.00
2018-02-06T07:08:40.173Z,0.00
2018-02-06T07:09:40.155Z,0.00
2018-02-06T07:10:40.205Z,0.00
2018-02-06T07:11:40.050Z,4.00
2018-02-06T07:12:40.089Z,4.00
2018-02-06T07:13:40.499Z,4.00
2018-02-06T07:14:40.047Z,4.00
2018-02-06T07:15:40.313Z,4.00
2018-02-06T07:16:40.065Z,8.00
2018-02-06T07:17:40.094Z,4.00
2018-02-06T07:18:40.244Z,8.00
2018-02-06T07:19:40.359Z,8.00
2018-02-06T07:20:40.379Z,8.00
2018-02-06T07:21:40.060Z,8.00
2018-02-06T07:22:40.493Z,8.00
2018-02-06T07:23:40.040Z,8.00
2018-02-06T07:24:39.957Z,8.00
2018-02-06T07:25:40.391Z,8.00
2018-02-06T07:26:40.014Z,8.00
2018-02-06T07:27:39.945Z,8.00
2018-02-06T07:28:39.972Z,16.00
2018-02-06T07:29:39.971Z,24.00
2018-02-06T07:30:39.999Z,24.00
2018-02-06T07:31:40.258Z,28.00
2018-02-06T07:32:39.886Z,24.00
2018-02-06T07:33:39.966Z,24.00
2018-02-06T07:34:39.898Z,28.00
2018-02-06T07:36:39.838Z,28.00
2018-02-06T07:37:40.356Z,24.00
2018-02-06T07:38:39.924Z,24.00
2018-02-06T07:39:39.858Z,24.00
2018-02-06T07:40:39.914Z,20.00
2018-02-06T07:41:39.991Z,24.00
2018-02-06T07:42:39.871Z,24.00
2018-02-06T07:43:40.618Z,24.00
2018-02-06T07:44:39.802Z,24.00
2018-02-06T07:45:39.859Z,24.00
2018-02-06T07:46:39.827Z,20.00
2018-02-06T07:47:40.231Z,24.00
2018-02-06T07:48:39.714Z,28.00
2018-02-06T07:49:40.138Z,32.00
2018-02-06T07:50:39.733Z,28.00
2018-02-06T07:51:40.085Z,24.00
2018-02-06T07:52:39.671Z,24.00
2018-02-06T07:53:39.922Z,24.00
2018-02-06T07:54:39.713Z,36.00
2018-02-06T07:55:40.134Z,56.00
2018-02-06T07:56:39.658Z,64.00
2018-02-06T07:57:39.632Z,88.00
2018-02-06T07:58:39.730Z,104.00
2018-02-06T07:59:39.728Z,112.00
2018-02-06T08:00:39.643Z,112.00
2018-02-06T08:01:39.752Z,112.00
2018-02-06T08:02:40.142Z,116.00
2018-02-06T08:03:39.813Z,120.00
2018-02-06T08:04:39.559Z,120.00
2018-02-06T08:05:39.820Z,120.00
2018-02-06T08:06:39.603Z,124.00
2018-02-06T08:07:39.595Z,120.00
2018-02-06T08:08:39.602Z,120.00
2018-02-06T08:09:39.922Z,124.00
2018-02-06T08:10:39.999Z,124.00
2018-02-06T08:11:39.556Z,128.00
2018-02-06T08:12:40.537Z,128.00
2018-02-06T08:13:39.585Z,128.00
2018-02-06T08:14:39.583Z,128.00
2018-02-06T08:15:39.468Z,128.00
2018-02-06T08:16:39.766Z,132.00
2018-02-06T08:17:39.575Z,132.00
2018-02-06T08:18:39.531Z,136.00
2018-02-06T08:19:39.532Z,136.00
2018-02-06T08:20:39.543Z,136.00
2018-02-06T08:21:39.528Z,136.00
2018-02-06T08:22:39.503Z,140.00
2018-02-06T08:23:40.106Z,140.00
2018-02-06T08:24:39.573Z,144.00
2018-02-06T08:26:39.443Z,140.00
2018-02-06T08:27:39.439Z,144.00
2018-02-06T08:28:39.474Z,144.00
2018-02-06T08:29:39.402Z,148.00
2018-02-06T08:30:39.767Z,148.00
2018-02-06T08:31:39.409Z,148.00
2018-02-06T08:32:39.342Z,148.00
2018-02-06T08:33:39.599Z,148.00
2018-02-06T08:34:39.391Z,148.00
2018-02-06T08:35:39.415Z,144.00
2018-02-06T08:36:39.700Z,148.00
2018-02-06T08:38:39.707Z,140.00
2018-02-06T08:39:39.349Z,140.00
2018-02-06T08:40:39.427Z,136.00
2018-02-06T08:41:39.449Z,132.00
2018-02-06T08:42:39.428Z,128.00
2018-02-06T08:43:39.478Z,124.00
2018-02-06T08:44:39.252Z,124.00
2018-02-06T08:45:39.710Z,120.00
2018-02-06T08:46:39.327Z,120.00
2018-02-06T08:48:39.217Z,112.00
2018-02-06T08:49:39.250Z,100.00
2018-02-06T08:50:39.175Z,92.00
